createdAt,value
2022-11-03T00:01:54.350Z,0.93
2022-11-03T00:06:59.437Z,0.87
2022-11-03T00:12:03.489Z,0.80
2022-11-03T00:17:07.341Z,0.80
2022-11-03T00:22:12.275Z,0.70
2022-11-03T00:27:15.877Z,0.75
2022-11-03T00:32:19.448Z,0.98
2022-11-03T00:37:24.465Z,0.90
2022-11-03T00:42:27.834Z,1.00
2022-11-03T00:47:31.391Z,0.80
2022-11-03T00:52:36.429Z,0.85
2022-11-03T01:02:43.081Z,0.65
2022-11-03T01:07:48.100Z,1.00
2022-11-03T01:12:51.431Z,0.90
2022-11-03T01:17:55.052Z,0.73
2022-11-03T01:22:59.719Z,0.70
2022-11-03T01:33:12.312Z,0.80
2022-11-03T01:38:17.458Z,0.70
2022-11-03T01:43:22.683Z,0.80
2022-11-03T01:48:26.653Z,0.70
2022-11-03T01:53:32.103Z,0.63
2022-11-03T01:58:39.567Z,0.90
2022-11-03T02:03:50.637Z,0.70
2022-11-03T02:09:02.058Z,0.60
2022-11-03T02:14:05.525Z,0.70
2022-11-03T02:19:15.031Z,0.60
2022-11-03T02:24:28.478Z,0.70
2022-11-03T02:29:33.644Z,0.70
2022-11-03T02:34:44.011Z,0.65
2022-11-03T02:39:50.408Z,0.60
2022-11-03T02:44:59.095Z,0.80
2022-11-03T02:50:02.594Z,0.60
2022-11-03T02:55:13.871Z,0.70
2022-11-03T03:00:19.802Z,0.73
2022-11-03T03:05:28.209Z,0.70
2022-11-03T03:10:36.484Z,0.70
2022-11-03T03:15:46.555Z,0.70
2022-11-03T03:20:56.941Z,0.75
2022-11-03T03:26:04.902Z,0.88
2022-11-03T03:31:13.544Z,0.70
2022-11-03T03:36:19.680Z,0.80
2022-11-03T03:41:25.540Z,0.68
2022-11-03T03:46:37.030Z,0.80
2022-11-03T03:51:40.880Z,0.95
2022-11-03T03:56:49.394Z,0.80
2022-11-03T04:01:54.480Z,1.00
2022-11-03T04:07:12.064Z,0.80
2022-11-03T04:12:32.969Z,0.65
2022-11-03T04:17:55.738Z,0.85
2022-11-03T04:22:59.028Z,0.80
2022-11-03T04:28:03.659Z,0.90
2022-11-03T04:38:25.283Z,0.88
2022-11-03T04:43:34.567Z,0.88
2022-11-03T04:48:39.361Z,0.70
2022-11-03T04:58:49.773Z,0.77
2022-11-03T05:03:56.115Z,0.90
2022-11-03T05:09:03.235Z,0.80
2022-11-03T05:14:16.719Z,0.82
2022-11-03T05:19:24.168Z,0.90
2022-11-03T05:24:28.212Z,0.90
2022-11-03T05:29:36.547Z,0.80
2022-11-03T05:34:44.341Z,1.00
2022-11-03T05:39:50.084Z,0.98
2022-11-03T05:44:53.687Z,0.90
2022-11-03T05:50:13.183Z,1.10
2022-11-03T05:55:28.484Z,1.00
2022-11-03T06:00:34.719Z,0.90
2022-11-03T06:05:39.517Z,1.20
2022-11-03T06:10:47.200Z,1.17
2022-11-03T06:15:59.256Z,1.08
2022-11-03T06:21:09.482Z,0.90
2022-11-03T06:26:22.092Z,0.88
2022-11-03T06:31:28.927Z,1.00
2022-11-03T06:36:38.776Z,1.45
2022-11-03T06:41:42.977Z,0.90
2022-11-03T06:46:46.644Z,0.90
2022-11-03T06:51:54.504Z,0.85
2022-11-03T07:02:02.883Z,0.98
2022-11-03T07:07:07.952Z,1.00
2022-11-03T07:12:17.882Z,1.20
2022-11-03T07:17:24.479Z,0.80
2022-11-03T07:22:29.563Z,1.05
2022-11-03T07:27:34.680Z,1.02
2022-11-03T07:32:38.116Z,0.90
2022-11-03T07:37:43.389Z,1.15
2022-11-03T07:42:47.005Z,0.90
2022-11-03T07:47:50.816Z,0.77
2022-11-03T07:52:55.701Z,0.85
2022-11-03T08:03:04.679Z,1.80
2022-11-03T08:08:10.190Z,1.00
2022-11-03T08:13:14.032Z,1.13
2022-11-03T08:18:17.726Z,1.33
2022-11-03T08:23:26.489Z,1.33
2022-11-03T08:28:31.122Z,1.60
2022-11-03T08:33:35.930Z,1.20
2022-11-03T08:38:40.968Z,1.30
2022-11-03T08:48:48.122Z,1.40
2022-11-03T08:53:54.208Z,1.27
2022-11-03T08:58:57.997Z,1.20
2022-11-03T09:04:01.908Z,1.23
2022-11-03T09:14:31.626Z,1.48
2022-11-03T09:19:35.249Z,1.55
2022-11-03T09:24:40.103Z,1.40
2022-11-03T09:35:09.063Z,1.95
2022-11-03T09:40:17.064Z,1.65
2022-11-03T09:45:20.725Z,1.88
2022-11-03T09:50:24.226Z,1.90
2022-11-03T09:55:29.339Z,1.83
2022-11-03T10:00:32.958Z,1.73
2022-11-03T10:05:36.436Z,1.95
2022-11-03T10:10:42.122Z,2.42
2022-11-03T10:15:45.636Z,2.20
2022-11-03T10:20:49.321Z,2.13
2022-11-03T10:25:54.289Z,2.80
2022-11-03T10:31:14.972Z,2.83
2022-11-03T10:36:26.744Z,2.80
2022-11-03T10:41:33.404Z,3.13
2022-11-03T10:46:50.107Z,2.83
2022-11-03T10:51:56.575Z,3.33
2022-11-03T10:57:03.134Z,3.40
2022-11-03T11:02:16.336Z,3.58
2022-11-03T11:07:25.180Z,3.60
2022-11-03T11:12:30.191Z,3.85
2022-11-03T11:17:49.998Z,4.30
2022-11-03T11:22:54.261Z,4.70
2022-11-03T11:28:00.027Z,4.15
2022-11-03T11:33:15.218Z,4.35
2022-11-03T11:38:55.784Z,4.63
2022-11-03T11:45:04.168Z,4.93
2022-11-03T11:50:32.304Z,4.80
2022-11-03T11:55:44.240Z,5.50
2022-11-03T12:01:01.601Z,5.18
2022-11-03T12:06:05.448Z,4.00
2022-11-03T12:11:11.868Z,4.30
2022-11-03T12:16:32.703Z,5.38
2022-11-03T12:21:49.794Z,5.35
2022-11-03T12:26:53.568Z,5.28
2022-11-03T12:31:58.701Z,5.35
2022-11-03T12:37:02.385Z,4.80
2022-11-03T12:42:06.687Z,4.82
2022-11-03T12:47:11.930Z,5.80
2022-11-03T12:52:15.395Z,4.80
2022-11-03T12:57:19.092Z,5.10
2022-11-03T13:02:24.056Z,5.53
2022-11-03T13:07:31.959Z,5.25
2022-11-03T13:12:41.570Z,5.40
2022-11-03T13:23:10.687Z,5.10
2022-11-03T13:28:14.411Z,5.77
2022-11-03T13:33:19.386Z,5.38
2022-11-03T13:43:26.226Z,5.03
2022-11-03T14:04:42.827Z,5.78
2022-11-03T14:09:47.771Z,6.10
2022-11-03T14:14:51.229Z,5.33
2022-11-03T14:20:02.613Z,5.90
2022-11-03T14:25:09.177Z,6.30
2022-11-03T14:30:14.085Z,6.30
